Time;durP1;ratioP1;P1;durP2;ratioP2;P2;SDS_P1;SDS_P2;PMS_P1;PMS_P2;Temp;Humidity;BMP_temperature;BMP_pressure;BME280_temperature;BME280_humidity;BME280_pressure;Samples;Min_cycle;Max_cycle;Signal;HPM_P1;HPM_P2
2023/06/05 00:00:40;;;;;;;3.55;2.28;;;16.70;68.20;;;;;;5066457;28;20289;-80
2023/06/05 00:03:29;;;;;;;5.18;2.22;;;16.70;67.60;;;;;;5065739;28;20558;-80
2023/06/05 00:06:18;;;;;;;3.67;2.28;;;16.60;68.30;;;;;;5051559;28;20279;-80
2023/06/05 00:09:07;;;;;;;4.35;2.38;;;16.70;68.00;;;;;;5063103;28;20234;-81
2023/06/05 00:11:57;;;;;;;4.65;2.60;;;16.60;68.00;;;;;;5065527;28;20232;-81
2023/06/05 00:14:46;;;;;;;5.00;2.45;;;16.70;68.20;;;;;;5064520;28;20235;-80
2023/06/05 00:17:36;;;;;;;6.97;2.55;;;16.60;68.60;;;;;;5065123;28;20325;-80
2023/06/05 00:20:25;;;;;;;4.10;1.90;;;16.60;68.80;;;;;;5058982;28;20646;-80
2023/06/05 00:23:14;;;;;;;5.32;2.63;;;16.70;68.70;;;;;;5060367;28;20224;-80
2023/06/05 00:26:03;;;;;;;4.63;2.60;;;16.60;69.40;;;;;;5058453;28;20235;-82
2023/06/05 00:28:53;;;;;;;4.55;2.60;;;16.60;68.90;;;;;;5064384;28;20236;-81
2023/06/05 00:31:43;;;;;;;4.47;2.72;;;16.60;69.40;;;;;;5062919;28;20266;-81
2023/06/05 00:34:32;;;;;;;4.65;2.47;;;16.60;69.70;;;;;;5060282;28;20278;-81
2023/06/05 00:37:21;;;;;;;5.72;2.30;;;16.50;70.00;;;;;;5054386;28;20921;-80
2023/06/05 00:40:11;;;;;;;5.20;2.70;;;16.40;69.60;;;;;;5051064;28;20229;-80
2023/06/05 00:43:01;;;;;;;5.22;2.90;;;16.50;70.20;;;;;;5058960;28;20744;-81
2023/06/05 00:45:57;;;;;;;3.90;2.60;;;16.30;69.70;;;;;;5065027;28;20239;-81
2023/06/05 00:48:48;;;;;;;5.78;2.80;;;16.30;70.30;;;;;;5063105;28;20778;-80
2023/06/05 00:51:37;;;;;;;4.72;2.88;;;16.20;70.10;;;;;;5064485;28;20310;-80
2023/06/05 00:54:27;;;;;;;4.85;2.72;;;16.20;70.50;;;;;;5060495;28;20232;-81
2023/06/05 00:57:16;;;;;;;5.72;3.10;;;16.30;70.80;;;;;;5072240;28;20710;-80
2023/06/05 01:00:07;;;;;;;4.55;2.97;;;16.00;71.10;;;;;;5070814;28;20231;-81
2023/06/05 01:02:58;;;;;;;6.25;3.20;;;16.10;71.30;;;;;;5074135;28;20220;-81
2023/06/05 01:05:49;;;;;;;5.00;2.90;;;16.00;71.70;;;;;;5061607;28;20238;-81
2023/06/05 01:08:39;;;;;;;4.80;2.97;;;16.10;72.00;;;;;;5079632;28;20284;-80
2023/06/05 01:11:35;;;;;;;5.40;3.08;;;16.00;72.10;;;;;;5075455;28;20224;-79
2023/06/05 01:14:27;;;;;;;7.80;3.22;;;16.10;72.70;;;;;;5049362;28;20228;-80
2023/06/05 01:17:18;;;;;;;6.00;3.17;;;16.10;73.00;;;;;;5053625;28;20212;-81
2023/06/05 01:20:11;;;;;;;4.82;2.92;;;16.00;73.00;;;;;;5058644;28;20303;-80
2023/06/05 01:23:01;;;;;;;6.13;2.70;;;16.10;74.10;;;;;;5053843;28;20259;-81
2023/06/05 01:25:50;;;;;;;4.20;2.80;;;16.00;73.20;;;;;;5083552;28;20231;-81
2023/06/05 01:28:39;;;;;;;4.10;2.75;;;16.00;74.20;;;;;;5084656;28;20360;-81
2023/06/05 01:31:29;;;;;;;4.93;2.92;;;16.10;74.30;;;;;;5065595;28;20377;-81
2023/06/05 01:34:20;;;;;;;4.85;2.80;;;15.90;73.80;;;;;;5048000;28;20315;-80
2023/06/05 01:37:12;;;;;;;5.72;2.70;;;15.90;74.50;;;;;;5054952;28;20934;-81
2023/06/05 01:40:06;;;;;;;5.55;2.85;;;15.90;74.10;;;;;;5063378;28;20246;-81
2023/06/05 01:42:56;;;;;;;5.78;2.85;;;15.90;74.00;;;;;;5081660;28;20226;-80
2023/06/05 01:45:45;;;;;;;6.55;2.95;;;15.80;73.90;;;;;;5064711;28;20220;-80
2023/06/05 01:48:38;;;;;;;5.93;2.97;;;15.70;74.50;;;;;;5041231;28;20236;-79
2023/06/05 01:51:28;;;;;;;6.78;3.22;;;15.80;74.30;;;;;;5052324;28;20253;-79
2023/06/05 01:54:18;;;;;;;7.97;3.00;;;15.70;74.20;;;;;;5052284;28;20293;-79
2023/06/05 01:57:09;;;;;;;5.57;2.97;;;15.60;74.90;;;;;;5061473;28;20258;-80
2023/06/05 01:59:58;;;;;;;5.43;3.30;;;15.70;75.00;;;;;;5051931;28;20228;-80
2023/06/05 02:02:47;;;;;;;6.22;3.13;;;15.60;75.30;;;;;;5048584;28;20228;-79
2023/06/05 02:05:37;;;;;;;5.75;2.95;;;15.60;75.30;;;;;;5050153;28;20366;-79
2023/06/05 02:08:28;;;;;;;10.27;4.20;;;15.70;75.20;;;;;;5059802;28;20208;-80
2023/06/05 02:11:17;;;;;;;5.13;3.25;;;15.80;76.10;;;;;;5049312;28;20888;-80
2023/06/05 02:14:08;;;;;;;5.07;3.20;;;15.80;76.60;;;;;;5045098;28;20235;-80
2023/06/05 02:16:57;;;;;;;7.82;3.20;;;15.70;76.80;;;;;;5055128;28;20327;-82
2023/06/05 02:19:46;;;;;;;6.22;3.35;;;15.70;76.80;;;;;;5062586;28;20231;-82
2023/06/05 02:22:35;;;;;;;6.55;2.65;;;15.60;76.50;;;;;;5063279;28;20548;-82
2023/06/05 02:25:25;;;;;;;8.18;3.05;;;15.60;77.50;;;;;;5084257;28;20643;-80
2023/06/05 02:28:15;;;;;;;8.27;3.38;;;15.70;78.00;;;;;;5069569;28;20222;-80
2023/06/05 02:31:05;;;;;;;5.13;3.67;;;15.60;77.70;;;;;;5050771;28;20224;-80
2023/06/05 02:33:55;;;;;;;6.68;3.42;;;15.70;78.10;;;;;;5053766;28;20550;-80
2023/06/05 02:36:45;;;;;;;8.07;3.70;;;15.70;78.30;;;;;;5059323;28;20788;-80
2023/06/05 02:39:34;;;;;;;9.05;3.88;;;15.60;78.00;;;;;;5064813;28;20709;-80
2023/06/05 02:42:23;;;;;;;5.53;3.58;;;15.60;77.80;;;;;;5069179;28;20231;-81
2023/06/05 02:45:12;;;;;;;5.90;3.72;;;15.50;78.40;;;;;;5084881;28;20231;-81
2023/06/05 02:48:03;;;;;;;6.30;3.40;;;15.40;78.00;;;;;;5048781;28;20220;-80
2023/06/05 02:50:52;;;;;;;4.85;3.60;;;15.50;78.60;;;;;;5039315;28;20224;-81
2023/06/05 02:53:41;;;;;;;8.50;3.65;;;15.60;77.90;;;;;;5056974;28;20220;-80
2023/06/05 02:56:30;;;;;;;5.53;3.63;;;15.60;77.60;;;;;;5041567;28;20232;-81
2023/06/05 02:59:19;;;;;;;7.97;3.90;;;15.50;77.40;;;;;;5066621;28;20243;-80
2023/06/05 03:02:08;;;;;;;7.30;3.58;;;15.40;77.50;;;;;;5060465;28;20231;-79
2023/06/05 03:05:00;;;;;;;5.13;3.92;;;15.60;77.90;;;;;;5072369;28;20302;-81
2023/06/05 03:07:48;;;;;;;10.23;3.67;;;15.60;78.10;;;;;;5064426;28;20223;-80
2023/06/05 03:10:37;;;;;;;12.77;4.20;;;15.60;78.30;;;;;;5085556;28;20238;-80
2023/06/05 03:13:29;;;;;;;7.40;3.17;;;15.60;77.90;;;;;;5065549;28;20634;-80
2023/06/05 03:16:18;;;;;;;5.53;3.20;;;15.60;77.50;;;;;;5058148;28;20227;-80
2023/06/05 03:19:11;;;;;;;6.43;3.25;;;15.70;77.90;;;;;;5061077;28;20219;-80
2023/06/05 03:22:04;;;;;;;7.35;3.08;;;15.80;77.80;;;;;;5066694;28;20220;-80
2023/06/05 03:24:55;;;;;;;7.03;3.58;;;15.80;78.00;;;;;;5083210;28;20227;-80
2023/06/05 03:27:46;;;;;;;7.85;3.10;;;15.90;78.30;;;;;;5060046;28;20738;-80
2023/06/05 03:30:35;;;;;;;5.07;3.00;;;16.00;77.60;;;;;;5054529;28;20730;-80
2023/06/05 03:33:24;;;;;;;5.68;2.75;;;16.00;78.60;;;;;;5054972;28;20254;-79
2023/06/05 03:36:17;;;;;;;8.25;3.10;;;16.00;77.80;;;;;;5052599;28;20698;-79
2023/06/05 03:39:09;;;;;;;5.50;3.17;;;16.10;78.20;;;;;;5062857;28;20227;-80
2023/06/05 03:42:00;;;;;;;5.93;3.15;;;16.10;78.60;;;;;;5079854;28;20236;-81
2023/06/05 03:44:51;;;;;;;4.82;2.83;;;16.20;78.00;;;;;;5067002;28;20369;-81
2023/06/05 03:47:40;;;;;;;6.95;3.00;;;16.30;77.30;;;;;;5072709;28;20232;-82
2023/06/05 03:50:33;;;;;;;5.72;2.60;;;16.30;77.80;;;;;;5078928;28;20256;-81
2023/06/05 03:53:22;;;;;;;3.92;2.50;;;16.30;77.90;;;;;;5069526;28;20211;-81
2023/06/05 03:56:15;;;;;;;5.05;2.42;;;16.40;76.60;;;;;;5055676;28;20224;-82
2023/06/05 03:59:08;;;;;;;5.53;2.85;;;16.50;76.90;;;;;;5074040;28;20216;-81
2023/06/05 04:02:00;;;;;;;6.03;2.88;;;16.60;77.10;;;;;;5061525;28;20220;-82
2023/06/05 04:04:50;;;;;;;3.85;2.70;;;16.70;77.40;;;;;;5073007;28;20318;-81
2023/06/05 04:07:39;;;;;;;6.72;2.85;;;16.70;76.50;;;;;;5078203;28;20307;-82
2023/06/05 04:10:28;;;;;;;7.13;2.97;;;16.70;76.40;;;;;;5067002;28;20218;-81
2023/06/05 04:13:18;;;;;;;9.70;2.80;;;16.90;78.00;;;;;;5071199;28;20232;-81
2023/06/05 04:16:08;;;;;;;4.10;2.88;;;17.00;76.60;;;;;;5037789;28;20686;-83
2023/06/05 04:18:57;;;;;;;5.80;2.60;;;17.00;75.60;;;;;;5069316;28;20676;-81
2023/06/05 04:21:46;;;;;;;4.47;2.45;;;17.10;75.80;;;;;;5064122;28;20299;-81
2023/06/05 04:24:35;;;;;;;4.50;2.50;;;17.20;74.80;;;;;;5053198;28;20228;-83
2023/06/05 04:27:28;;;;;;;7.65;2.80;;;17.20;74.10;;;;;;5054378;28;20587;-81
2023/06/05 04:30:19;;;;;;;5.38;2.80;;;17.40;75.60;;;;;;5069012;28;20215;-83
2023/06/05 04:33:08;;;;;;;4.32;2.45;;;17.30;73.50;;;;;;5071615;28;20228;-82
2023/06/05 04:35:59;;;;;;;4.80;2.40;;;17.20;73.40;;;;;;5043481;28;20243;-82
2023/06/05 04:38:49;;;;;;;4.03;2.30;;;17.20;72.90;;;;;;5068771;28;20762;-82
2023/06/05 04:41:44;;;;;;;4.32;2.53;;;17.30;73.20;;;;;;5067272;28;20313;-80
2023/06/05 04:44:38;;;;;;;4.15;2.63;;;17.50;73.30;;;;;;5068146;28;20601;-82
2023/06/05 04:47:29;;;;;;;4.97;2.63;;;17.60;72.60;;;;;;5046205;28;20306;-82
2023/06/05 04:50:26;;;;;;;5.35;2.78;;;17.70;73.40;;;;;;5050883;28;20220;-83
2023/06/05 04:53:28;;;;;;;11.27;3.53;;;18.00;75.20;;;;;;5066933;28;20215;-80
2023/06/05 04:56:17;;;;;;;5.95;2.97;;;18.00;73.10;;;;;;5062119;28;20231;-82
2023/06/05 04:59:06;;;;;;;7.57;2.88;;;18.10;74.50;;;;;;5032963;28;20244;-82
2023/06/05 05:01:55;;;;;;;8.27;2.60;;;18.30;73.50;;;;;;5020789;28;20767;-82
2023/06/05 05:04:46;;;;;;;9.20;2.58;;;18.40;72.20;;;;;;5026186;28;20243;-83
2023/06/05 05:07:35;;;;;;;5.65;2.80;;;18.40;72.40;;;;;;5049592;28;20759;-81
2023/06/05 05:10:25;;;;;;;4.72;2.70;;;18.60;73.90;;;;;;5041123;28;20232;-79
2023/06/05 05:13:14;;;;;;;8.77;2.90;;;18.70;72.40;;;;;;5036529;28;20767;-81
2023/06/05 05:16:03;;;;;;;8.57;3.13;;;18.70;71.50;;;;;;5054786;28;20311;-81
2023/06/05 05:18:52;;;;;;;8.02;2.65;;;18.90;72.50;;;;;;5036451;28;20749;-81
2023/06/05 05:21:42;;;;;;;5.30;2.58;;;18.70;70.60;;;;;;5055776;28;20592;-81
2023/06/05 05:24:31;;;;;;;7.78;2.60;;;18.80;71.30;;;;;;5018951;28;20240;-81
2023/06/05 05:27:20;;;;;;;4.43;2.35;;;18.80;69.80;;;;;;5024502;28;20237;-81
2023/06/05 05:30:11;;;;;;;9.90;2.40;;;18.90;72.00;;;;;;5041744;28;20241;-81
2023/06/05 05:33:00;;;;;;;5.32;2.50;;;19.10;70.00;;;;;;5042728;28;21025;-81
2023/06/05 05:35:50;;;;;;;8.90;2.00;;;19.40;68.70;;;;;;5026671;28;20226;-80
2023/06/05 05:38:41;;;;;;;6.10;2.20;;;19.70;68.50;;;;;;5047419;28;20283;-81
2023/06/05 05:41:30;;;;;;;6.25;2.13;;;19.40;70.70;;;;;;5027626;28;20349;-81
2023/06/05 05:44:20;;;;;;;6.65;2.30;;;19.40;69.20;;;;;;5058694;28;20278;-81
2023/06/05 05:47:08;;;;;;;8.35;2.25;;;19.50;68.00;;;;;;5034260;28;20228;-78
2023/06/05 05:49:57;;;;;;;5.78;2.40;;;19.40;68.20;;;;;;5058583;28;20228;-82
2023/06/05 05:52:47;;;;;;;4.07;2.20;;;19.60;69.40;;;;;;5033085;28;20225;-80
2023/06/05 05:55:38;;;;;;;3.03;1.90;;;19.70;67.90;;;;;;5042908;28;20217;-81
2023/06/05 05:58:31;;;;;;;4.15;1.80;;;19.70;68.50;;;;;;5029431;28;20225;-81
2023/06/05 06:01:21;;;;;;;8.20;2.58;;;19.80;67.60;;;;;;5059554;28;20220;-81
2023/06/05 06:04:10;;;;;;;4.38;1.80;;;20.00;68.60;;;;;;5062612;28;20840;-82
2023/06/05 06:07:00;;;;;;;4.82;2.10;;;20.10;66.60;;;;;;5046974;28;20224;-81
2023/06/05 06:09:49;;;;;;;7.22;2.47;;;20.20;68.20;;;;;;5031811;28;20216;-81
2023/06/05 06:12:40;;;;;;;6.25;2.33;;;20.30;66.70;;;;;;5040745;28;21725;-82
2023/06/05 06:15:29;;;;;;;7.15;2.20;;;20.50;67.40;;;;;;5052666;28;20220;-81
2023/06/05 06:18:19;;;;;;;6.03;2.22;;;20.50;66.30;;;;;;5062309;28;20406;-80
2023/06/05 06:21:08;;;;;;;5.47;2.33;;;20.30;65.80;;;;;;5055105;28;20307;-82
2023/06/05 06:23:57;;;;;;;6.03;2.20;;;20.30;65.70;;;;;;5049945;28;20278;-82
2023/06/05 06:26:46;;;;;;;5.63;1.80;;;20.40;66.80;;;;;;5058876;28;20217;-82
2023/06/05 06:29:48;;;;;;;4.53;2.00;;;20.30;65.80;;;;;;5038378;28;20229;-82
2023/06/05 06:32:37;;;;;;;8.10;2.63;;;20.60;64.80;;;;;;5050967;28;20346;-81
2023/06/05 06:35:26;;;;;;;6.38;1.98;;;20.70;65.30;;;;;;5042299;28;20219;-81
2023/06/05 06:38:15;;;;;;;7.85;2.35;;;20.70;65.00;;;;;;5064012;28;20318;-81
2023/06/05 06:41:04;;;;;;;9.57;2.30;;;20.90;65.70;;;;;;5045719;28;20307;-81
2023/06/05 06:43:53;;;;;;;4.40;2.00;;;21.40;64.70;;;;;;5042852;28;20245;-81
2023/06/05 06:46:43;;;;;;;6.65;2.10;;;21.60;61.90;;;;;;5057523;28;20236;-81
2023/06/05 06:49:32;;;;;;;5.63;1.92;;;22.00;62.20;;;;;;5056296;28;20289;-81
2023/06/05 06:52:21;;;;;;;5.78;1.95;;;22.10;63.50;;;;;;5053945;28;20228;-81
2023/06/05 06:55:13;;;;;;;8.75;2.00;;;21.90;62.50;;;;;;5052316;28;20220;-81
2023/06/05 06:58:02;;;;;;;4.07;1.70;;;22.00;61.30;;;;;;5065348;28;20288;-82
2023/06/05 07:00:51;;;;;;;3.95;1.63;;;21.80;62.50;;;;;;5047322;28;20215;-83
2023/06/05 07:03:41;;;;;;;3.50;2.03;;;21.80;60.00;;;;;;5067866;28;20239;-83
2023/06/05 07:06:30;;;;;;;3.20;1.92;;;22.00;60.30;;;;;;5050971;28;20212;-82
2023/06/05 07:09:19;;;;;;;3.30;1.80;;;22.20;59.30;;;;;;5055299;28;20220;-81
2023/06/05 07:12:12;;;;;;;3.92;1.90;;;22.70;59.10;;;;;;5061723;28;20215;-83
2023/06/05 07:15:02;;;;;;;3.47;1.23;;;22.90;57.70;;;;;;5079667;28;20219;-81
2023/06/05 07:17:51;;;;;;;4.38;1.30;;;23.20;55.60;;;;;;5066343;28;20228;-83
2023/06/05 07:20:41;;;;;;;6.00;1.52;;;23.30;56.00;;;;;;5062722;28;20236;-82
2023/06/05 07:23:33;;;;;;;9.32;1.80;;;23.50;54.80;;;;;;5080578;28;20251;-81
2023/06/05 07:26:24;;;;;;;10.70;1.60;;;23.80;55.20;;;;;;5056994;28;20227;-81
2023/06/05 07:29:13;;;;;;;3.83;1.33;;;24.20;53.70;;;;;;5059238;28;20235;-81
2023/06/05 07:32:05;;;;;;;11.52;1.52;;;24.70;52.40;;;;;;5060104;28;20698;-81
2023/06/05 07:34:56;;;;;;;2.85;1.52;;;25.00;54.60;;;;;;5064326;28;20753;-81
2023/06/05 07:37:46;;;;;;;2.28;1.20;;;25.30;51.90;;;;;;5048987;28;20266;-81
2023/06/05 07:40:35;;;;;;;12.40;2.80;;;25.80;50.90;;;;;;5058488;28;20231;-81
2023/06/05 07:43:24;;;;;;;13.15;2.22;;;26.20;51.40;;;;;;5067567;28;20825;-82
2023/06/05 07:46:14;;;;;;;2.47;1.60;;;26.70;50.80;;;;;;5071215;28;20220;-81
2023/06/05 07:49:03;;;;;;;150.90;11.98;;;26.60;50.10;;;;;;5061107;28;20216;-82
2023/06/05 07:51:52;;;;;;;43.80;5.15;;;27.10;49.80;;;;;;5070356;28;20216;-82
2023/06/05 07:54:42;;;;;;;15.52;2.42;;;27.30;48.70;;;;;;5066596;28;20250;-82
2023/06/05 07:57:31;;;;;;;7.00;1.90;;;27.70;48.00;;;;;;5079802;28;20426;-82
2023/06/05 08:00:20;;;;;;;3.63;1.38;;;27.80;47.30;;;;;;5062393;28;20219;-81
2023/06/05 08:03:09;;;;;;;5.82;2.00;;;27.70;47.50;;;;;;5065083;28;20744;-82
2023/06/05 08:05:58;;;;;;;4.88;1.40;;;27.90;47.00;;;;;;5070628;28;20220;-81
2023/06/05 08:08:47;;;;;;;9.05;2.00;;;27.90;46.40;;;;;;5047032;28;20315;-81
2023/06/05 08:11:38;;;;;;;3.08;1.50;;;27.70;47.30;;;;;;5071639;28;20323;-81
2023/06/05 08:14:26;;;;;;;4.68;1.70;;;28.10;45.30;;;;;;5086416;28;20215;-83
2023/06/05 08:17:15;;;;;;;25.65;3.90;;;28.20;47.40;;;;;;5065157;28;20223;-83
2023/06/05 08:20:07;;;;;;;5.68;1.73;;;28.20;45.80;;;;;;5064269;28;20228;-81
2023/06/05 08:22:57;;;;;;;17.38;2.38;;;28.70;44.10;;;;;;5075056;28;20215;-82
2023/06/05 08:25:48;;;;;;;2.63;1.25;;;28.60;46.00;;;;;;5079976;28;20220;-82
2023/06/05 08:28:39;;;;;;;3.40;1.48;;;29.20;45.80;;;;;;5070602;28;20273;-82
2023/06/05 08:31:28;;;;;;;5.35;1.60;;;28.80;43.70;;;;;;5069564;28;20223;-82
2023/06/05 08:34:17;;;;;;;3.22;1.63;;;28.70;43.70;;;;;;5084953;28;20223;-83
2023/06/05 08:37:06;;;;;;;3.97;1.63;;;28.80;45.40;;;;;;5068477;28;20235;-83
2023/06/05 08:39:58;;;;;;;1.60;1.20;;;29.30;43.60;;;;;;5063306;28;20259;-83
2023/06/05 08:42:47;;;;;;;2.72;1.40;;;29.10;42.70;;;;;;5081670;28;20610;-82
2023/06/05 08:45:37;;;;;;;4.35;1.30;;;28.90;43.20;;;;;;5070080;28;20223;-85
2023/06/05 08:48:26;;;;;;;5.43;1.90;;;28.60;44.30;;;;;;5053145;28;20221;-82
2023/06/05 08:51:16;;;;;;;4.78;1.52;;;27.90;43.60;;;;;;5069957;28;20227;-82
2023/06/05 08:54:09;;;;;;;4.90;1.52;;;28.50;44.90;;;;;;5086948;28;20242;-82
2023/06/05 08:56:59;;;;;;;11.25;2.03;;;29.10;42.50;;;;;;5087387;28;20262;-82
2023/06/05 08:59:50;;;;;;;6.13;1.60;;;28.70;43.10;;;;;;5092115;28;20763;-83
2023/06/05 09:02:43;;;;;;;30.70;4.75;;;29.50;45.20;;;;;;5085738;28;20230;-83
2023/06/05 09:05:33;;;;;;;5.93;1.90;;;29.80;42.90;;;;;;5073753;28;20226;-82
2023/06/05 09:08:31;;;;;;;3.83;1.90;;;29.60;43.00;;;;;;5052950;28;20216;-83
2023/06/05 09:11:27;;;;;;;2.60;1.60;;;29.00;43.10;;;;;;5055450;28;20230;-82
2023/06/05 09:14:27;;;;;;;3.55;1.50;;;29.80;43.70;;;;;;5087526;28;20223;-82
2023/06/05 09:17:16;;;;;;;6.90;1.73;;;30.20;42.10;;;;;;5065374;28;20219;-82
2023/06/05 09:20:10;;;;;;;4.20;1.70;;;30.30;44.00;;;;;;5061033;28;20281;-81
2023/06/05 09:22:59;;;;;;;11.63;1.77;;;30.50;42.70;;;;;;5059253;28;20290;-84
2023/06/05 09:25:54;;;;;;;3.83;1.90;;;30.40;41.80;;;;;;5075124;28;20702;-83
2023/06/05 09:28:57;;;;;;;4.35;1.80;;;29.60;42.00;;;;;;5048554;28;20250;-83
2023/06/05 09:31:46;;;;;;;5.95;1.60;;;30.30;41.90;;;;;;5085072;28;20451;-83
2023/06/05 09:34:37;;;;;;;4.40;2.00;;;30.80;43.40;;;;;;5056464;28;20238;-84
2023/06/05 09:37:35;;;;;;;4.88;1.60;;;31.80;42.40;;;;;;5074933;28;20242;-84
2023/06/05 09:40:38;;;;;;;7.05;1.80;;;31.90;40.50;;;;;;5083975;28;20219;-83
2023/06/05 09:43:26;;;;;;;41.92;4.18;;;32.60;41.50;;;;;;5081317;28;20306;-84
2023/06/05 09:46:16;;;;;;;11.95;2.92;;;33.30;40.70;;;;;;5066953;28;20220;-82
2023/06/05 09:49:08;;;;;;;9.05;1.98;;;34.10;41.00;;;;;;5060085;28;20693;-84
2023/06/05 09:51:58;;;;;;;4.45;2.42;;;34.90;39.10;;;;;;5049850;28;20368;-85
2023/06/05 09:54:48;;;;;;;5.15;1.80;;;36.10;40.50;;;;;;5061808;28;20215;-84
2023/06/05 09:57:39;;;;;;;4.20;1.58;;;35.90;38.50;;;;;;5072243;28;20232;-84
2023/06/05 10:00:29;;;;;;;4.05;1.90;;;36.70;39.90;;;;;;5056125;28;20235;-84
2023/06/05 10:03:20;;;;;;;5.05;1.80;;;36.80;37.40;;;;;;5071374;28;20276;-84
2023/06/05 10:06:10;;;;;;;3.05;1.40;;;37.00;35.50;;;;;;5030504;28;20599;-84
2023/06/05 10:09:09;;;;;;;5.45;1.80;;;35.10;38.00;;;;;;5050362;28;20228;-84
2023/06/05 10:12:00;;;;;;;3.35;1.50;;;36.20;36.70;;;;;;5053186;28;20219;-85
2023/06/05 10:14:51;;;;;;;5.35;1.55;;;35.70;36.80;;;;;;5050052;28;20266;-84
2023/06/05 10:17:41;;;;;;;4.25;1.80;;;36.90;37.20;;;;;;5044552;28;20231;-83
2023/06/05 10:20:30;;;;;;;3.08;1.60;;;37.90;36.40;;;;;;5063148;28;20773;-84
2023/06/05 10:23:21;;;;;;;4.35;1.63;;;38.40;34.80;;;;;;5070708;28;20337;-75
2023/06/05 10:26:21;;;;;;;4.63;1.70;;;38.40;35.70;;;;;;5083307;28;20225;-85
2023/06/05 10:29:25;;;;;;;2.95;1.60;;;39.50;36.00;;;;;;5087148;28;20277;-84
2023/06/05 10:32:23;;;;;;;4.88;1.45;;;40.90;34.20;;;;;;5083312;28;20223;-83
2023/06/05 10:35:25;;;;;;;5.85;1.60;;;40.50;33.30;;;;;;5085076;28;20290;-84
2023/06/05 10:38:18;;;;;;;3.47;1.42;;;40.30;33.40;;;;;;5055135;28;20250;-85
2023/06/05 10:41:08;;;;;;;2.50;1.70;;;40.90;33.90;;;;;;5067550;28;20230;-85
2023/06/05 10:43:57;;;;;;;2.83;1.42;;;41.10;33.50;;;;;;5030911;28;20222;-85
2023/06/05 10:46:47;;;;;;;5.18;1.40;;;40.30;32.30;;;;;;5061914;28;20290;-85
2023/06/05 10:49:36;;;;;;;4.30;1.52;;;42.40;33.40;;;;;;5057656;28;20216;-85
2023/06/05 10:52:37;;;;;;;2.47;1.52;;;43.40;32.30;;;;;;5037235;28;20269;-85
2023/06/05 10:55:27;;;;;;;3.63;1.48;;;43.80;32.30;;;;;;5048582;28;20216;-86
2023/06/05 10:58:16;;;;;;;4.45;1.50;;;44.20;32.90;;;;;;5053010;28;20599;-86
2023/06/05 11:01:20;;;;;;;3.15;1.63;;;43.70;32.50;;;;;;5083672;28;20250;-86
2023/06/05 11:04:16;;;;;;;6.93;1.63;;;43.90;31.70;;;;;;5069045;28;20388;-86
2023/06/05 11:07:16;;;;;;;5.53;1.80;;;44.60;31.40;;;;;;5056263;28;20214;-86
2023/06/05 11:10:21;;;;;;;4.53;1.50;;;44.30;30.00;;;;;;5060475;28;20347;-86
2023/06/05 11:13:10;;;;;;;4.40;1.80;;;44.80;31.30;;;;;;5063391;28;20242;-87
2023/06/05 11:15:59;;;;;;;3.35;1.58;;;42.20;30.60;;;;;;5072915;28;20231;-87
2023/06/05 11:18:49;;;;;;;4.57;1.80;;;40.90;31.70;;;;;;5070009;28;20364;-85
2023/06/05 11:22:03;;;;;;;4.40;1.50;;;42.00;32.50;;;;;;5085584;28;20312;-88
2023/06/05 11:25:27;;;;;;;6.63;1.63;;;42.40;31.40;;;;;;5064016;28;20334;-87
2023/06/05 11:28:45;;;;;;;3.35;1.60;;;44.20;31.50;;;;;;5058966;28;20889;-87
2023/06/05 11:31:35;;;;;;;2.30;1.40;;;46.30;31.20;;;;;;5067378;28;20223;-86
2023/06/05 11:34:24;;;;;;;4.45;1.50;;;45.50;28.60;;;;;;5070134;28;20225;-88
2023/06/05 11:37:19;;;;;;;2.22;1.52;;;45.00;30.00;;;;;;5067131;28;20669;-87
2023/06/05 11:40:09;;;;;;;6.18;1.50;;;45.60;29.70;;;;;;5061331;28;20235;-87
2023/06/05 11:43:04;;;;;;;5.63;1.50;;;46.80;28.70;;;;;;5059114;28;20264;-88
2023/06/05 11:45:56;;;;;;;3.67;1.50;;;46.60;29.30;;;;;;5082476;28;20310;-87
2023/06/05 11:48:45;;;;;;;1.65;1.30;;;47.40;29.40;;;;;;5063062;28;20298;-86
2023/06/05 11:51:38;;;;;;;5.47;1.45;;;44.30;28.70;;;;;;5054508;28;20216;-87
2023/06/05 11:54:30;;;;;;;6.03;1.60;;;40.90;31.20;;;;;;5055350;28;20333;-87
2023/06/05 11:57:26;;;;;;;2.75;1.45;;;45.70;30.00;;;;;;5050347;28;20232;-76
2023/06/05 12:00:28;;;;;;;4.53;1.40;;;47.60;28.70;;;;;;5047859;28;20306;-86
2023/06/05 12:03:20;;;;;;;2.72;1.35;;;47.90;28.60;;;;;;5060056;28;20212;-86
2023/06/05 12:06:09;;;;;;;3.75;1.50;;;48.90;28.30;;;;;;5059787;28;20220;-86
2023/06/05 12:09:09;;;;;;;4.57;1.63;;;47.20;27.50;;;;;;5048691;28;20228;-87
2023/06/05 12:12:10;;;;;;;2.65;1.23;;;45.80;27.80;;;;;;5065461;28;20241;-86
2023/06/05 12:15:17;;;;;;;6.03;1.60;;;45.80;28.30;;;;;;5052733;28;20759;-87
2023/06/05 12:18:06;;;;;;;3.60;1.40;;;48.10;28.60;;;;;;5057776;28;20224;-86
2023/06/05 12:20:56;;;;;;;3.60;1.70;;;49.80;28.30;;;;;;5066259;28;20220;-86
2023/06/05 12:23:45;;;;;;;4.63;1.48;;;50.80;27.10;;;;;;5055393;28;20329;-86
2023/06/05 12:26:53;;;;;;;4.03;1.50;;;52.10;27.60;;;;;;5058363;28;20755;-86
2023/06/05 12:29:55;;;;;;;3.67;1.42;;;51.10;26.90;;;;;;5067563;28;20223;-87
2023/06/05 12:32:44;;;;;;;6.07;1.50;;;50.50;26.80;;;;;;5055192;28;20229;-86
2023/06/05 12:35:33;;;;;;;2.33;1.30;;;50.10;27.30;;;;;;5064693;28;20228;-87
2023/06/05 12:38:23;;;;;;;5.05;1.75;;;49.00;26.60;;;;;;5077674;28;20680;-85
2023/06/05 12:41:12;;;;;;;6.57;1.73;;;48.50;26.70;;;;;;5077350;28;20234;-86
2023/06/05 12:44:04;;;;;;;8.52;1.50;;;46.10;27.20;;;;;;5055525;28;20803;-86
2023/06/05 12:46:52;;;;;;;4.18;1.33;;;46.00;27.60;;;;;;5067028;28;20695;-87
2023/06/05 12:49:41;;;;;;;2.97;1.63;;;45.80;27.50;;;;;;5051978;28;20220;-87
2023/06/05 12:52:31;;;;;;;4.05;1.60;;;42.80;27.80;;;;;;5071749;28;20321;-85
2023/06/05 12:55:22;;;;;;;4.57;2.10;;;37.80;30.50;;;;;;5076525;28;20235;-85
2023/06/05 12:58:14;;;;;;;2.35;1.38;;;34.40;33.40;;;;;;5059698;28;20220;-85
2023/06/05 13:01:03;;;;;;;4.28;1.73;;;33.00;35.40;;;;;;5047594;28;20231;-85
2023/06/05 13:03:53;;;;;;;3.47;1.92;;;31.90;36.50;;;;;;5056947;28;20282;-85
2023/06/05 13:06:42;;;;;;;5.15;1.60;;;31.20;37.20;;;;;;5078250;28;20758;-86
2023/06/05 13:09:31;;;;;;;3.80;1.52;;;30.50;37.80;;;;;;5058107;28;20211;-86
2023/06/05 13:12:22;;;;;;;5.03;1.95;;;29.70;38.50;;;;;;5083665;28;20801;-84
2023/06/05 13:15:12;;;;;;;4.60;1.70;;;29.30;39.00;;;;;;5073127;28;20610;-86
2023/06/05 13:18:01;;;;;;;6.03;1.90;;;29.10;39.80;;;;;;5051937;28;20268;-84
2023/06/05 13:20:49;;;;;;;6.10;2.00;;;28.90;40.40;;;;;;5076621;28;20838;-85
2023/06/05 13:23:38;;;;;;;3.20;1.85;;;28.90;41.40;;;;;;5079469;28;20298;-85
2023/06/05 13:26:27;;;;;;;6.55;1.80;;;28.80;40.60;;;;;;5071875;28;20218;-86
2023/06/05 13:29:18;;;;;;;5.55;1.80;;;28.50;40.80;;;;;;5105698;28;20305;-82
2023/06/05 13:32:07;;;;;;;3.17;1.90;;;28.80;40.60;;;;;;5093117;28;20945;-84
2023/06/05 13:34:57;;;;;;;5.15;1.83;;;28.60;40.70;;;;;;5096708;28;20298;-86
2023/06/05 13:37:48;;;;;;;3.72;1.90;;;28.20;41.10;;;;;;5065596;28;20702;-83
2023/06/05 13:40:37;;;;;;;5.32;1.60;;;28.00;41.50;;;;;;5083914;28;20245;-83
2023/06/05 13:43:25;;;;;;;3.10;1.90;;;27.90;42.20;;;;;;5081739;28;20293;-83
2023/06/05 13:46:16;;;;;;;5.20;1.90;;;27.40;42.00;;;;;;5049135;28;20220;-83
2023/06/05 13:49:04;;;;;;;4.13;1.60;;;27.10;42.00;;;;;;5085293;28;20215;-84
2023/06/05 13:51:53;;;;;;;2.08;1.60;;;26.80;42.40;;;;;;5078627;28;20222;-84
2023/06/05 13:54:43;;;;;;;4.50;1.70;;;27.00;43.50;;;;;;5066123;28;20393;-84
2023/06/05 13:57:32;;;;;;;3.88;1.85;;;27.10;42.90;;;;;;5071577;28;20227;-83
2023/06/05 14:00:21;;;;;;;5.00;1.80;;;26.90;43.00;;;;;;5059207;28;20413;-82
2023/06/05 14:03:13;;;;;;;3.88;1.83;;;26.90;45.50;;;;;;5057387;28;20220;-83
2023/06/05 14:06:02;;;;;;;7.10;1.63;;;27.00;43.60;;;;;;5083296;28;20222;-82
2023/06/05 14:08:51;;;;;;;3.20;1.95;;;26.90;43.90;;;;;;5069148;28;20272;-83
2023/06/05 14:11:44;;;;;;;3.17;1.88;;;26.90;42.90;;;;;;5087812;28;20665;-83
2023/06/05 14:14:33;;;;;;;3.65;2.00;;;26.80;43.00;;;;;;5051061;28;20221;-83
2023/06/05 14:17:22;;;;;;;5.88;2.20;;;26.90;43.70;;;;;;5070752;28;20227;-82
2023/06/05 14:20:13;;;;;;;3.78;2.17;;;26.60;42.40;;;;;;5076875;28;20760;-84
2023/06/05 14:23:02;;;;;;;4.25;2.25;;;26.50;43.40;;;;;;5056622;28;20242;-81
2023/06/05 14:25:51;;;;;;;4.28;1.98;;;26.50;43.10;;;;;;5059781;28;20254;-83
2023/06/05 14:28:40;;;;;;;3.95;1.83;;;26.30;43.90;;;;;;5074510;28;20280;-81
2023/06/05 14:31:29;;;;;;;7.57;1.88;;;26.20;43.20;;;;;;5069236;28;20312;-82
2023/06/05 14:34:19;;;;;;;5.45;2.17;;;26.00;43.40;;;;;;5087756;28;20231;-82
2023/06/05 14:37:09;;;;;;;10.85;2.50;;;26.00;44.10;;;;;;5087429;28;20465;-81
2023/06/05 14:39:58;;;;;;;6.10;2.22;;;25.80;43.60;;;;;;5085390;28;20375;-80
2023/06/05 14:42:47;;;;;;;2.70;1.70;;;25.80;43.80;;;;;;5068150;28;20234;-82
2023/06/05 14:45:36;;;;;;;4.60;1.88;;;25.80;43.50;;;;;;5075923;28;20230;-81
2023/06/05 14:48:25;;;;;;;4.10;2.38;;;25.80;43.50;;;;;;5074760;28;20216;-80